Time;durP1;ratioP1;P1;durP2;ratioP2;P2;SDS_P1;SDS_P2;PMS_P1;PMS_P2;Temp;Humidity;BMP_temperature;BMP_pressure;BME280_temperature;BME280_humidity;BME280_pressure;Samples;Min_cycle;Max_cycle;Signal;HPM_P1;HPM_P2
2021/05/25 00:02:00;;;;;;;5.85;5.10;;;;;;;10.49;82.57;101284.94;1855841;77;20993;-68
2021/05/25 00:04:27;;;;;;;7.22;5.05;;;;;;;10.47;82.49;101290.25;1861084;75;21130;-68
2021/05/25 00:06:55;;;;;;;6.40;5.00;;;;;;;10.42;82.45;101293.63;1846060;77;21096;-68
2021/05/25 00:09:22;;;;;;;5.37;4.87;;;;;;;10.39;82.42;101291.95;1850116;76;21658;-68
2021/05/25 00:11:51;;;;;;;6.05;4.90;;;;;;;10.32;82.43;101286.22;1842048;77;21166;-69
2021/05/25 00:14:20;;;;;;;6.62;5.30;;;;;;;10.31;82.48;101295.81;1857991;77;21060;-69
2021/05/25 00:16:50;;;;;;;6.90;5.85;;;;;;;10.30;82.51;101293.67;1856933;77;22667;-69
2021/05/25 00:19:18;;;;;;;6.62;5.20;;;;;;;10.33;82.54;101293.20;1857444;77;21722;-69
2021/05/25 00:21:45;;;;;;;8.25;5.67;;;;;;;10.37;82.69;101297.55;1854134;77;21059;-70
2021/05/25 00:24:13;;;;;;;7.45;5.72;;;;;;;10.37;82.70;101292.20;1853848;77;21481;-68
2021/05/25 00:26:39;;;;;;;7.42;5.87;;;;;;;10.39;82.80;101291.95;1847630;77;21076;-69
2021/05/25 00:29:06;;;;;;;7.03;5.50;;;;;;;10.40;82.94;101296.23;1846888;77;21673;-68
2021/05/25 00:31:34;;;;;;;8.03;6.00;;;;;;;10.41;83.09;101293.34;1852325;76;21089;-69
2021/05/25 00:34:00;;;;;;;7.08;5.58;;;;;;;10.43;83.35;101292.59;1858340;77;21103;-69
2021/05/25 00:36:27;;;;;;;6.58;5.22;;;;;;;10.46;83.62;101290.78;1860286;77;21545;-69
2021/05/25 00:38:54;;;;;;;6.85;5.50;;;;;;;10.48;83.74;101292.67;1859120;76;21080;-70
2021/05/25 00:41:22;;;;;;;5.90;5.30;;;;;;;10.48;83.78;101295.34;1787086;78;21067;-70
2021/05/25 00:43:49;;;;;;;6.10;5.17;;;;;;;10.49;83.78;101297.48;1786533;78;21003;-68
2021/05/25 00:46:16;;;;;;;6.22;5.15;;;;;;;10.48;83.70;101297.21;1803422;79;21238;-68
2021/05/25 00:48:44;;;;;;;6.37;5.33;;;;;;;10.47;83.58;101304.95;1821434;78;21037;-69
2021/05/25 00:51:11;;;;;;;7.62;5.08;;;;;;;10.46;83.39;101308.64;1814000;78;20976;-69
2021/05/25 00:53:38;;;;;;;6.45;5.10;;;;;;;10.41;83.16;101313.38;1818356;78;21599;-70
2021/05/25 00:56:05;;;;;;;4.65;4.12;;;;;;;10.36;82.98;101311.11;1822654;78;21080;-71
2021/05/25 00:58:34;;;;;;;4.60;4.20;;;;;;;10.30;82.82;101311.03;1801858;79;21634;-67
2021/05/25 01:01:00;;;;;;;4.40;4.00;;;;;;;10.27;82.70;101310.70;1803273;78;21610;-69
2021/05/25 01:03:27;;;;;;;4.30;3.75;;;;;;;10.21;82.58;101310.27;1809449;78;21080;-68
2021/05/25 01:05:54;;;;;;;4.53;4.12;;;;;;;10.16;82.47;101310.15;1805931;78;21040;-69
2021/05/25 01:08:21;;;;;;;4.40;4.00;;;;;;;10.10;82.45;101314.06;1810566;79;21832;-68
2021/05/25 01:10:57;;;;;;;4.40;4.00;;;;;;;10.07;82.62;101310.53;1808917;78;21612;-69
2021/05/25 01:13:21;;;;;;;4.70;3.52;;;;;;;10.05;82.77;101311.80;1811879;78;21037;-68
2021/05/25 01:15:49;;;;;;;4.97;3.62;;;;;;;10.01;82.88;101318.66;1781902;78;21135;-69
2021/05/25 01:18:16;;;;;;;4.47;3.70;;;;;;;9.99;82.92;101316.21;1797275;78;21053;-69
2021/05/25 01:20:47;;;;;;;4.20;3.62;;;;;;;9.98;82.90;101313.79;1764298;78;21175;-70
2021/05/25 01:23:14;;;;;;;4.30;3.90;;;;;;;9.90;82.91;101314.94;1781828;78;21049;-69
2021/05/25 01:25:46;;;;;;;4.78;3.67;;;;;;;9.76;83.03;101309.04;1789295;78;21093;-69
2021/05/25 01:28:14;;;;;;;4.20;3.80;;;;;;;9.61;83.20;101308.19;1813725;77;21088;-68
2021/05/25 01:30:44;;;;;;;6.25;3.70;;;;;;;9.53;83.20;101307.70;1823813;78;21060;-69
2021/05/25 01:33:12;;;;;;;4.55;3.67;;;;;;;9.48;83.60;101304.94;1781449;78;21088;-69
2021/05/25 01:35:39;;;;;;;4.10;3.70;;;;;;;9.38;83.82;101304.17;1778990;78;21038;-69
2021/05/25 01:38:08;;;;;;;4.20;3.80;;;;;;;9.31;84.05;101309.62;1814766;77;21055;-68
2021/05/25 01:40:35;;;;;;;4.85;3.80;;;;;;;9.30;84.33;101312.50;1811407;78;21075;-69
2021/05/25 01:43:02;;;;;;;4.20;3.70;;;;;;;9.32;84.52;101313.90;1854218;75;21051;-69
2021/05/25 01:45:35;;;;;;;4.20;3.80;;;;;;;9.37;84.57;101319.86;1855628;76;21084;-68
2021/05/25 01:48:04;;;;;;;5.10;4.53;;;;;;;9.42;84.59;101316.52;1846752;77;21012;-69
2021/05/25 01:50:31;;;;;;;6.42;4.50;;;;;;;9.46;84.54;101314.48;1863208;77;21495;-69
2021/05/25 01:53:16;;;;;;;10.63;5.65;;;;;;;9.47;84.39;101316.10;1857691;77;21075;-69
2021/05/25 01:55:52;;;;;;;8.58;5.40;;;;;;;9.46;84.23;101313.68;1844318;77;21618;-68
2021/05/25 01:58:25;;;;;;;7.60;5.25;;;;;;;9.46;84.25;101313.16;1768000;78;21092;-69
2021/05/25 02:01:02;;;;;;;7.42;5.47;;;;;;;9.49;84.24;101315.89;1810867;78;21053;-68
2021/05/25 02:03:29;;;;;;;8.43;5.92;;;;;;;9.50;84.14;101316.17;1804653;78;21052;-68
2021/05/25 02:05:57;;;;;;;9.05;6.20;;;;;;;9.51;84.03;101312.45;1778268;78;21143;-69
2021/05/25 02:08:24;;;;;;;11.23;6.80;;;;;;;9.51;83.96;101307.95;1686989;78;9999695;-68
2021/05/25 02:10:56;;;;;;;8.53;6.50;;;;;;;9.52;83.92;101309.56;1792163;78;27719;-67
2021/05/25 02:13:28;;;;;;;9.70;7.03;;;;;;;9.53;83.87;101316.52;1857068;75;21823;-67
2021/05/25 02:15:58;;;;;;;11.73;6.90;;;;;;;9.51;83.84;101321.29;1857564;77;21000;-67
2021/05/25 02:18:31;;;;;;;11.15;7.03;;;;;;;9.53;83.89;101315.71;1789606;79;21515;-67
2021/05/25 02:21:00;;;;;;;8.93;6.37;;;;;;;9.56;83.97;101312.58;1783724;78;21068;-67
2021/05/25 02:23:28;;;;;;;7.75;6.30;;;;;;;9.60;84.07;101315.88;1794157;78;21013;-67
2021/05/25 02:25:55;;;;;;;8.15;6.92;;;;;;;9.66;84.09;101319.48;1815186;78;21586;-68
2021/05/25 02:28:23;;;;;;;10.55;6.83;;;;;;;9.71;84.20;101316.14;1813995;78;21045;-68
2021/05/25 02:30:50;;;;;;;9.88;6.70;;;;;;;9.75;84.27;101322.09;1795240;79;21075;-67
2021/05/25 02:33:20;;;;;;;8.65;6.65;;;;;;;9.80;84.41;101326.72;1807641;78;21115;-67
2021/05/25 02:35:49;;;;;;;11.05;6.67;;;;;;;9.81;84.50;101327.03;1801739;79;21060;-67
2021/05/25 02:38:16;;;;;;;8.93;5.95;;;;;;;9.84;84.70;101321.23;1855404;77;21066;-67
2021/05/25 02:40:46;;;;;;;7.45;6.70;;;;;;;9.93;84.95;101318.48;1856704;75;21614;-67
2021/05/25 02:43:15;;;;;;;9.00;6.72;;;;;;;10.01;85.07;101322.14;1853550;75;21068;-67
2021/05/25 02:45:43;;;;;;;11.22;6.83;;;;;;;10.03;85.22;101325.89;1855082;75;21131;-67
2021/05/25 02:48:10;;;;;;;11.55;6.03;;;;;;;10.03;85.52;101329.90;1784413;80;21025;-68
2021/05/25 02:50:40;;;;;;;8.28;5.33;;;;;;;10.04;85.86;101323.53;1789216;78;21099;-67
2021/05/25 02:53:08;;;;;;;11.05;4.90;;;;;;;10.05;86.18;101325.95;1813433;78;21048;-67
2021/05/25 02:55:36;;;;;;;6.55;5.20;;;;;;;10.08;86.48;101335.36;1792909;78;21124;-67
2021/05/25 02:58:07;;;;;;;8.25;4.62;;;;;;;10.12;86.75;101331.70;1807794;77;21076;-67
2021/05/25 03:00:40;;;;;;;5.20;4.30;;;;;;;10.17;86.95;101328.62;1794954;77;21518;-67
2021/05/25 03:03:07;;;;;;;4.70;4.20;;;;;;;10.16;87.04;101327.50;1788153;80;21079;-66
2021/05/25 03:05:34;;;;;;;5.28;4.05;;;;;;;10.18;87.17;101332.90;1751267;80;21100;-67
2021/05/25 03:08:03;;;;;;;5.12;3.72;;;;;;;10.26;87.36;101335.75;1788869;78;21028;-66
2021/05/25 03:10:35;;;;;;;4.80;3.40;;;;;;;10.33;87.25;101329.75;1808899;78;21081;-67
2021/05/25 03:13:03;;;;;;;4.15;3.62;;;;;;;10.33;87.11;101337.27;1823015;77;21073;-69
2021/05/25 03:15:33;;;;;;;4.22;3.40;;;;;;;10.39;87.20;101343.50;1811354;77;21141;-67
2021/05/25 03:18:00;;;;;;;4.00;3.50;;;;;;;10.52;87.29;101345.09;1786540;78;21004;-68
2021/05/25 03:20:27;;;;;;;4.65;3.67;;;;;;;10.67;87.25;101344.59;1812081;78;21649;-67
2021/05/25 03:22:54;;;;;;;5.08;3.70;;;;;;;10.76;87.06;101334.63;1799513;78;21061;-68
2021/05/25 03:25:21;;;;;;;4.40;3.83;;;;;;;10.82;86.98;101328.83;1787921;78;21666;-68
2021/05/25 03:27:48;;;;;;;4.33;3.75;;;;;;;10.92;87.00;101333.55;1788764;79;21143;-68
2021/05/25 03:30:19;;;;;;;4.60;4.03;;;;;;;11.04;86.95;101329.77;1792765;79;21115;-68
2021/05/25 03:32:46;;;;;;;5.25;4.03;;;;;;;11.16;86.86;101330.24;1795841;78;21025;-68
2021/05/25 03:35:13;;;;;;;5.87;3.72;;;;;;;11.28;86.77;101333.63;1791692;78;21703;-68
2021/05/25 03:37:41;;;;;;;6.28;4.37;;;;;;;11.41;86.80;101337.86;1783482;79;37252;-68
2021/05/25 03:40:10;;;;;;;4.47;3.80;;;;;;;11.54;86.83;101338.06;1792132;79;21066;-67
2021/05/25 03:42:38;;;;;;;4.73;3.70;;;;;;;11.69;86.80;101340.45;1796269;79;21659;-68
2021/05/25 03:45:06;;;;;;;4.17;3.77;;;;;;;11.82;86.77;101337.16;1789345;78;21250;-68
2021/05/25 03:47:33;;;;;;;4.37;3.87;;;;;;;11.92;86.69;101338.13;1780397;78;21849;-67
2021/05/25 03:50:09;;;;;;;4.10;3.70;;;;;;;12.07;86.67;101340.19;1797607;78;22696;-67
2021/05/25 03:52:42;;;;;;;4.43;3.77;;;;;;;12.25;86.60;101343.13;1780588;80;21352;-68
2021/05/25 03:55:25;;;;;;;4.70;3.87;;;;;;;12.44;86.41;101344.44;1785912;78;21351;-68
2021/05/25 04:00:11;;;;;;;4.10;3.50;;;;;;;12.79;86.24;101339.17;1820848;78;21356;-67
2021/05/25 04:02:38;;;;;;;5.57;4.00;;;;;;;13.01;86.08;101335.11;1800672;78;21214;-67
2021/05/25 04:05:07;;;;;;;6.03;3.93;;;;;;;13.19;85.73;101328.55;1772896;79;21304;-67
2021/05/25 04:07:34;;;;;;;5.13;3.53;;;;;;;13.36;85.43;101323.92;1780179;80;21850;-66
2021/05/25 04:10:00;;;;;;;5.93;3.77;;;;;;;13.52;85.26;101332.06;1821233;77;21255;-68
2021/05/25 04:12:29;;;;;;;6.63;3.80;;;;;;;13.68;85.17;101329.77;1794457;78;21189;-67
2021/05/25 04:14:57;;;;;;;5.93;3.70;;;;;;;13.89;84.87;101323.20;1821820;78;21270;-68
2021/05/25 04:17:25;;;;;;;5.53;3.50;;;;;;;14.01;84.24;101321.09;1787084;78;21469;-67
2021/05/25 04:19:52;;;;;;;4.90;3.67;;;;;;;14.13;83.76;101324.38;1779238;78;21413;-67
2021/05/25 04:22:19;;;;;;;6.33;4.00;;;;;;;14.26;83.35;101327.94;1822797;77;21834;-67
2021/05/25 04:24:46;;;;;;;7.70;4.00;;;;;;;14.64;82.94;101329.16;1808915;77;21344;-68
2021/05/25 04:27:13;;;;;;;7.17;4.03;;;;;;;14.64;82.94;101329.16;1818501;78;21482;-68
2021/05/25 04:29:41;;;;;;;6.17;3.60;;;;;;;15.07;81.87;101335.14;1781200;80;21533;-69
2021/05/25 04:32:09;;;;;;;7.70;5.43;;;;;;;15.07;81.87;101335.14;1793548;79;21663;-68
2021/05/25 04:34:35;;;;;;;10.60;8.07;;;;;;;15.23;80.77;101328.70;1856869;77;21499;-67
2021/05/25 04:37:04;;;;;;;12.23;6.80;;;;;;;15.44;79.29;101316.86;1856610;77;22091;-68
2021/05/25 04:39:31;;;;;;;9.63;5.37;;;;;;;15.44;79.29;101316.86;1851487;77;21961;-68
2021/05/25 04:41:58;;;;;;;7.47;5.20;;;;;;;15.51;78.69;101315.23;1858033;77;21838;-68
2021/05/25 04:44:25;;;;;;;11.80;5.37;;;;;;;15.61;78.01;101315.77;1850100;77;21681;-68
2021/05/25 04:46:54;;;;;;;8.43;4.00;;;;;;;15.70;77.55;101319.02;1857245;77;21700;-67
2021/05/25 04:49:20;;;;;;;7.07;4.20;;;;;;;15.84;75.99;101313.05;1857178;77;21781;-68
2021/05/25 04:51:48;;;;;;;6.87;3.33;;;;;;;15.85;74.40;101315.46;1858256;75;21614;-67
2021/05/25 04:54:16;;;;;;;5.57;3.00;;;;;;;15.92;73.31;101308.44;1856838;77;21815;-67
2021/05/25 04:56:44;;;;;;;4.13;2.87;;;;;;;16.03;72.26;101303.84;1857272;75;21728;-67
2021/05/25 04:59:11;;;;;;;6.87;2.90;;;;;;;16.15;71.39;101302.42;1854002;77;21732;-68
2021/05/25 05:01:37;;;;;;;7.00;2.80;;;;;;;16.22;70.47;101295.92;1785356;80;21798;-68
2021/05/25 05:04:04;;;;;;;5.73;2.20;;;;;;;16.31;69.90;101297.77;1816438;78;21052;-67
2021/05/25 05:06:31;;;;;;;3.30;1.90;;;;;;;16.47;69.71;101286.38;1805547;78;21763;-68
2021/05/25 05:08:57;;;;;;;4.10;1.83;;;;;;;16.67;68.75;101292.73;1784569;78;21061;-68
2021/05/25 05:11:24;;;;;;;4.57;2.10;;;;;;;17.08;66.53;101277.89;1818814;78;21060;-69
2021/05/25 05:13:53;;;;;;;3.20;1.73;;;;;;;17.08;66.53;101277.89;1813806;78;21575;-67
2021/05/25 05:16:21;;;;;;;3.63;1.67;;;;;;;17.28;65.68;101277.45;1789284;78;21140;-68
2021/05/25 05:18:50;;;;;;;4.20;1.70;;;;;;;17.43;64.39;101271.89;1799339;79;20965;-67
2021/05/25 05:21:17;;;;;;;3.77;1.73;;;;;;;17.58;62.99;101282.55;1788885;78;21081;-68
2021/05/25 05:23:45;;;;;;;3.80;2.17;;;;;;;17.75;62.58;101280.74;1775733;78;21520;-68
2021/05/25 05:26:12;;;;;;;3.50;1.97;;;;;;;17.91;62.22;101284.11;1784085;79;21192;-68
2021/05/25 05:28:39;;;;;;;4.17;1.73;;;;;;;18.07;61.75;101279.33;1788478;79;21048;-68
2021/05/25 05:31:06;;;;;;;5.50;1.23;;;;;;;18.19;60.47;101282.95;1793380;79;21087;-69
2021/05/25 05:33:33;;;;;;;3.20;1.30;;;;;;;18.29;59.44;101289.58;1793576;78;21686;-69
2021/05/25 05:36:00;;;;;;;2.27;1.40;;;;;;;18.41;58.58;101288.61;1780733;79;21068;-69
2021/05/25 05:38:27;;;;;;;2.97;1.80;;;;;;;18.56;58.45;101283.55;1791900;78;21073;-67
2021/05/25 05:40:56;;;;;;;3.30;1.57;;;;;;;18.68;57.77;101282.53;1787375;79;21518;-68
2021/05/25 05:43:24;;;;;;;3.20;1.53;;;;;;;18.77;56.42;101289.48;1792167;78;21662;-68
2021/05/25 05:45:51;;;;;;;3.07;1.70;;;;;;;18.87;55.75;101292.02;1791608;79;21080;-68
2021/05/25 05:48:18;;;;;;;3.33;1.80;;;;;;;18.91;55.33;101293.59;1783212;79;21551;-68
2021/05/25 05:50:44;;;;;;;2.77;1.50;;;;;;;18.85;54.35;101284.73;1784499;79;21028;-68
2021/05/25 05:53:11;;;;;;;3.60;1.60;;;;;;;18.71;54.06;101285.20;1795655;79;21570;-66
2021/05/25 05:55:38;;;;;;;4.23;1.50;;;;;;;18.64;54.56;101281.52;1788946;79;21555;-67
2021/05/25 05:58:06;;;;;;;3.47;1.67;;;;;;;18.66;54.71;101286.66;1791043;78;21056;-67
2021/05/25 06:00:33;;;;;;;3.40;1.57;;;;;;;18.71;54.82;101283.30;1785222;79;21379;-68
2021/05/25 06:03:00;;;;;;;4.10;2.10;;;;;;;18.73;55.23;101284.41;1794697;79;21187;-68
2021/05/25 06:05:27;;;;;;;3.00;1.77;;;;;;;18.81;55.49;101282.92;1793407;79;21105;-69
2021/05/25 06:07:54;;;;;;;4.43;1.97;;;;;;;18.91;55.58;101274.64;1784603;78;21116;-68
2021/05/25 06:10:21;;;;;;;3.97;1.80;;;;;;;19.06;55.90;101269.54;1795629;79;20973;-68
2021/05/25 06:12:48;;;;;;;4.30;1.73;;;;;;;19.18;55.71;101263.91;1739185;80;21081;-68
2021/05/25 06:15:16;;;;;;;5.07;1.80;;;;;;;19.28;56.14;101264.28;1783258;79;21060;-68
2021/05/25 06:17:43;;;;;;;4.63;1.80;;;;;;;19.38;56.20;101262.74;1784683;79;21049;-68
2021/05/25 06:20:11;;;;;;;3.53;1.50;;;;;;;19.55;56.54;101265.42;1802626;78;21088;-68
2021/05/25 06:22:38;;;;;;;2.53;1.20;;;;;;;19.67;55.68;101263.83;1795704;78;21084;-69
2021/05/25 06:25:07;;;;;;;5.30;1.80;;;;;;;19.74;55.05;101256.65;1797617;78;21709;-67
2021/05/25 06:27:35;;;;;;;3.10;1.83;;;;;;;19.75;55.30;101248.79;1790232;79;21052;-68
2021/05/25 06:30:02;;;;;;;2.73;1.50;;;;;;;19.86;55.61;101252.09;1790639;79;21602;-68
2021/05/25 06:32:29;;;;;;;2.40;1.30;;;;;;;20.01;54.79;101248.27;1796656;79;21481;-68
2021/05/25 06:34:56;;;;;;;2.63;1.40;;;;;;;20.17;53.49;101235.16;1792122;79;21042;-68
2021/05/25 06:37:22;;;;;;;3.90;1.27;;;;;;;20.33;53.63;101233.16;1789131;78;21580;-68
2021/05/25 06:39:49;;;;;;;2.37;1.20;;;;;;;20.36;51.29;101231.75;1794143;79;21060;-68
2021/05/25 06:42:16;;;;;;;2.97;1.30;;;;;;;20.42;51.60;101231.09;1794345;79;21016;-69
2021/05/25 06:44:44;;;;;;;3.00;1.03;;;;;;;20.51;51.08;101219.78;1796284;79;21086;-68
2021/05/25 06:47:11;;;;;;;2.03;1.00;;;;;;;20.61;51.07;101217.63;1788074;79;21209;-66
2021/05/25 06:49:39;;;;;;;2.17;1.20;;;;;;;20.69;49.55;101216.63;1792390;79;21068;-69
2021/05/25 06:52:08;;;;;;;3.03;1.00;;;;;;;20.64;49.21;101220.28;1794819;79;20993;-68
2021/05/25 06:54:36;;;;;;;1.77;1.00;;;;;;;20.61;49.63;101218.19;1793734;79;21076;-68
2021/05/25 06:57:03;;;;;;;1.90;1.03;;;;;;;20.59;47.46;101219.03;1793971;79;21543;-68
2021/05/25 06:59:30;;;;;;;1.63;0.90;;;;;;;20.52;47.53;101218.67;1794488;79;20969;-69
2021/05/25 07:01:57;;;;;;;3.03;0.93;;;;;;;20.52;48.06;101222.73;1796151;78;21057;-68
2021/05/25 07:04:24;;;;;;;1.87;0.90;;;;;;;20.62;48.16;101222.48;1799497;78;21100;-67
2021/05/25 07:06:51;;;;;;;2.53;1.03;;;;;;;20.71;48.31;101220.65;1789248;78;21161;-67
2021/05/25 07:09:19;;;;;;;2.40;0.90;;;;;;;20.76;46.92;101219.17;1793842;79;21100;-67
2021/05/25 07:11:48;;;;;;;1.57;1.03;;;;;;;20.76;47.74;101231.39;1794947;79;21604;-68
2021/05/25 07:14:15;;;;;;;2.80;1.27;;;;;;;20.79;47.04;101219.89;1795601;79;21099;-67
2021/05/25 07:16:42;;;;;;;1.57;1.10;;;;;;;20.84;46.67;101225.20;1787864;79;21100;-68
2021/05/25 07:19:11;;;;;;;2.90;1.10;;;;;;;20.83;45.36;101224.97;1788684;79;21602;-67
2021/05/25 07:21:38;;;;;;;2.80;1.00;;;;;;;20.82;45.25;101217.91;1794489;79;21979;-67
2021/05/25 07:24:08;;;;;;;1.57;0.93;;;;;;;20.79;45.55;101217.17;1792290;79;21924;-67
2021/05/25 07:26:35;;;;;;;2.73;1.20;;;;;;;20.75;46.54;101222.19;1787899;79;21083;-70
2021/05/25 07:29:02;;;;;;;2.03;1.07;;;;;;;20.64;46.26;101226.27;1794057;79;21042;-69
2021/05/25 07:31:30;;;;;;;2.23;1.07;;;;;;;20.57;47.08;101230.77;1796875;79;21068;-68
2021/05/25 07:33:57;;;;;;;2.33;0.90;;;;;;;20.62;46.19;101234.70;1793787;79;22485;-67
2021/05/25 07:36:24;;;;;;;2.13;1.00;;;;;;;20.70;45.50;101229.91;1786122;78;21098;-68
2021/05/25 07:38:51;;;;;;;3.07;1.07;;;;;;;20.85;45.17;101233.59;1786103;79;21064;-68
2021/05/25 07:41:17;;;;;;;2.90;1.10;;;;;;;20.99;45.90;101223.20;1787566;78;22256;-68
2021/05/25 07:43:44;;;;;;;4.50;1.00;;;;;;;21.06;45.84;101219.52;1786664;79;21072;-67
2021/05/25 07:46:12;;;;;;;3.17;1.30;;;;;;;21.09;45.36;101221.58;1790020;79;21154;-68
2021/05/25 07:48:40;;;;;;;2.87;1.23;;;;;;;21.18;45.09;101224.35;1789012;78;21135;-69
2021/05/25 07:51:07;;;;;;;2.17;1.03;;;;;;;21.23;44.79;101218.23;1777400;78;21059;-68
2021/05/25 07:53:34;;;;;;;1.77;1.00;;;;;;;21.30;45.25;101218.58;1796392;78;21116;-68
2021/05/25 07:56:01;;;;;;;2.43;1.27;;;;;;;21.43;44.79;101215.55;1811680;78;21590;-68
2021/05/25 07:58:28;;;;;;;3.27;1.20;;;;;;;21.50;44.81;101218.61;1786674;78;21111;-68
2021/05/25 08:00:55;;;;;;;2.57;1.13;;;;;;;21.59;44.21;101213.21;1793287;79;21753;-69
2021/05/25 08:03:22;;;;;;;3.23;1.00;;;;;;;21.65;43.73;101213.31;1796034;79;21075;-68
2021/05/25 08:05:49;;;;;;;1.87;0.90;;;;;;;21.72;42.91;101207.41;1787151;79;21143;-68
2021/05/25 08:08:16;;;;;;;1.67;0.60;;;;;;;21.85;42.60;101197.50;1791928;78;21625;-69
2021/05/25 08:10:45;;;;;;;1.40;0.80;;;;;;;21.95;43.04;101201.30;1771508;78;21112;-69
2021/05/25 08:13:12;;;;;;;2.33;0.80;;;;;;;22.05;42.25;101197.47;1786935;78;21084;-69
2021/05/25 08:15:41;;;;;;;2.50;1.03;;;;;;;22.10;41.05;101202.17;1787086;78;21060;-68
2021/05/25 08:18:40;;;;;;;1.63;0.90;;;;;;;22.18;41.50;101197.91;1817645;78;21049;-69
2021/05/25 08:20:51;;;;;;;2.37;1.00;;;;;;;22.23;41.52;101198.53;1777470;78;21124;-70
2021/05/25 08:23:18;;;;;;;1.40;0.93;;;;;;;22.30;42.09;101201.34;1747940;80;21749;-69
2021/05/25 08:25:46;;;;;;;1.10;0.83;;;;;;;22.34;41.76;101197.67;1814486;77;21096;-67
2021/05/25 08:28:13;;;;;;;2.57;1.20;;;;;;;22.38;41.77;101196.47;1813890;78;21100;-67
2021/05/25 08:30:41;;;;;;;2.17;0.90;;;;;;;22.39;41.55;101185.81;1776639;80;21068;-69
2021/05/25 08:33:09;;;;;;;1.53;0.90;;;;;;;22.42;42.50;101183.81;1786430;78;21669;-69
2021/05/25 08:35:37;;;;;;;2.33;0.90;;;;;;;22.48;42.87;101181.17;1784068;79;21818;-68
2021/05/25 08:38:05;;;;;;;1.33;0.97;;;;;;;22.57;41.65;101181.13;1790140;79;21110;-68
2021/05/25 08:40:33;;;;;;;1.80;0.90;;;;;;;22.55;40.75;101182.03;1792126;79;21032;-68
2021/05/25 08:43:00;;;;;;;1.27;0.80;;;;;;;22.57;41.35;101176.48;1789271;79;21662;-68
2021/05/25 08:45:28;;;;;;;1.40;1.00;;;;;;;22.65;40.35;101183.86;1796500;78;21028;-69
2021/05/25 08:47:56;;;;;;;1.37;0.80;;;;;;;22.70;39.31;101171.44;1791491;79;21745;-70
2021/05/25 08:50:27;;;;;;;2.23;1.00;;;;;;;22.67;39.55;101177.53;1788237;79;21060;-69
2021/05/25 08:52:56;;;;;;;;;;;;;;;22.71;39.97;101178.48;1797752;79;21284;-67
2021/05/25 08:55:23;;;;;;;1.50;0.80;;;;;;;22.83;40.07;101178.36;1798157;79;20317;-69
2021/05/25 08:57:50;;;;;;;2.83;1.00;;;;;;;22.89;40.81;101165.61;1794851;79;21159;-68
2021/05/25 09:00:20;;;;;;;2.17;1.07;;;;;;;23.00;39.86;101164.73;1792766;78;21165;-68
2021/05/25 09:02:47;;;;;;;2.30;0.77;;;;;;;23.09;39.24;101161.39;1782791;79;21072;-67
2021/05/25 09:05:18;;;;;;;1.77;0.93;;;;;;;23.18;39.41;101163.53;1790088;79;21005;-68
2021/05/25 09:07:56;;;;;;;2.10;1.00;;;;;;;23.27;39.57;101159.41;1794560;78;21078;-71
2021/05/25 09:10:40;;;;;;;1.97;1.00;;;;;;;23.35;39.60;101146.86;1791191;79;21065;-67
2021/05/25 09:13:03;;;;;;;2.13;0.80;;;;;;;23.42;38.19;101147.13;1792419;79;21107;-68
2021/05/25 09:15:43;;;;;;;1.30;0.80;;;;;;;23.43;39.13;101150.11;1794825;78;21609;-68
2021/05/25 09:18:23;;;;;;;1.00;0.80;;;;;;;23.53;39.24;101153.82;1803464;78;21087;-68
2021/05/25 09:20:54;;;;;;;1.10;0.73;;;;;;;23.66;40.01;101156.07;1789414;79;21008;-68
2021/05/25 09:23:39;;;;;;;1.27;0.80;;;;;;;23.80;38.92;101154.48;1802376;78;22965;-69
2021/05/25 09:26:17;;;;;;;2.00;0.77;;;;;;;23.92;38.33;101158.62;1784732;79;21080;-68
2021/05/25 09:29:02;;;;;;;1.40;0.80;;;;;;;23.94;37.25;101156.94;1789213;79;21104;-68
2021/05/25 09:31:48;;;;;;;1.40;0.90;;;;;;;23.89;37.67;101160.67;1791975;79;21024;-68
2021/05/25 09:34:24;;;;;;;1.33;0.80;;;;;;;23.86;37.65;101157.25;1795369;78;21158;-68
2021/05/25 09:37:08;;;;;;;2.37;0.87;;;;;;;23.92;38.50;101154.53;1795150;79;21120;-70
2021/05/25 09:39:48;;;;;;;2.23;0.90;;;;;;;23.92;37.66;101143.61;1780786;79;21099;-68
2021/05/25 09:42:17;;;;;;;1.93;0.90;;;;;;;24.00;37.77;101138.67;1796997;79;21622;-68
2021/05/25 09:45:12;;;;;;;1.17;0.70;;;;;;;24.01;36.97;101149.80;1796762;79;21705;-69
2021/05/25 09:47:44;;;;;;;2.53;0.80;;;;;;;24.03;37.77;101146.77;1786592;79;21578;-68
2021/05/25 09:50:13;;;;;;;2.00;0.80;;;;;;;24.09;37.17;101146.22;1788049;79;21502;-68
2021/05/25 09:53:05;;;;;;;1.27;0.73;;;;;;;24.00;36.01;101138.67;1796575;78;21072;-67
2021/05/25 09:55:52;;;;;;;1.70;0.90;;;;;;;23.79;36.84;101142.77;1793925;79;21463;-68
2021/05/25 09:58:21;;;;;;;1.77;0.80;;;;;;;23.77;37.75;101131.95;1780869;79;21595;-68
2021/05/25 10:00:48;;;;;;;1.73;0.97;;;;;;;23.91;37.12;101135.77;1790810;79;21088;-68
2021/05/25 10:03:20;;;;;;;1.23;0.70;;;;;;;23.92;36.46;101140.09;1796370;78;21558;-67
2021/05/25 10:05:50;;;;;;;2.23;0.90;;;;;;;23.91;36.76;101143.96;1795546;79;21845;-67
2021/05/25 10:08:21;;;;;;;2.73;0.80;;;;;;;23.91;37.16;101140.66;1761468;79;21092;-69
2021/05/25 10:10:54;;;;;;;1.00;0.70;;;;;;;23.97;36.65;101133.08;1781076;80;21187;-69
2021/05/25 10:13:23;;;;;;;2.27;0.87;;;;;;;24.01;36.40;101132.64;1786318;78;21038;-68
2021/05/25 10:15:52;;;;;;;2.93;0.70;;;;;;;24.06;36.94;101133.81;1789207;79;21156;-69
2021/05/25 10:20:55;;;;;;;1.10;0.70;;;;;;;24.28;36.91;101129.36;1766650;77;21428;-68
2021/05/25 10:23:23;;;;;;;1.13;0.70;;;;;;;24.31;35.65;101120.47;1818298;77;21041;-68
2021/05/25 10:25:53;;;;;;;1.30;0.70;;;;;;;24.21;34.91;101125.56;1802805;79;21106;-69
2021/05/25 10:28:20;;;;;;;1.93;0.70;;;;;;;24.14;35.40;101126.67;1800511;78;21026;-68
2021/05/25 10:30:50;;;;;;;0.97;0.60;;;;;;;24.05;34.89;101130.30;1788795;78;21645;-68
2021/05/25 10:33:21;;;;;;;2.20;0.70;;;;;;;23.97;35.36;101124.33;1780476;80;21077;-68
2021/05/25 10:36:01;;;;;;;1.82;0.70;;;;;;;23.92;35.56;101107.34;1783244;79;21048;-69
2021/05/25 10:38:34;;;;;;;4.27;0.77;;;;;;;23.91;35.95;101102.47;1800031;79;21166;-67
2021/05/25 10:41:06;;;;;;;1.73;0.80;;;;;;;23.92;36.10;101101.32;1782808;78;21119;-68
2021/05/25 10:43:39;;;;;;;1.43;0.60;;;;;;;23.94;36.93;101085.43;1782497;78;22316;-67
2021/05/25 10:46:16;;;;;;;1.77;0.67;;;;;;;23.96;37.06;101072.27;1786905;80;21052;-69
2021/05/25 10:49:07;;;;;;;1.00;0.60;;;;;;;24.02;37.12;101068.20;1789933;78;21076;-69
2021/05/25 10:51:53;;;;;;;2.50;0.87;;;;;;;24.07;36.39;101063.87;1784667;78;21607;-69
2021/05/25 10:54:27;;;;;;;1.97;0.67;;;;;;;24.13;36.67;101067.78;1769648;78;22030;-69
2021/05/25 10:56:54;;;;;;;1.63;0.50;;;;;;;24.22;36.39;101072.02;1785586;78;21840;-68
2021/05/25 10:59:21;;;;;;;1.43;0.50;;;;;;;24.27;36.63;101072.36;1784567;78;21175;-67
2021/05/25 11:01:59;;;;;;;1.60;0.90;;;;;;;24.27;36.10;101073.15;1786653;78;21111;-68
2021/05/25 11:04:36;;;;;;;0.87;0.60;;;;;;;24.24;36.21;101083.95;1811427;78;21123;-66
2021/05/25 11:07:40;;;;;;;1.13;0.70;;;;;;;24.22;36.39;101077.47;1796941;78;21625;-68
2021/05/25 11:10:36;;;;;;;2.00;0.80;;;;;;;24.28;37.44;101072.58;1850042;77;21122;-68
2021/05/25 11:13:21;;;;;;;2.90;0.80;;;;;;;24.40;36.57;101072.62;1786089;79;21087;-68
2021/05/25 11:16:36;;;;;;;2.70;0.70;;;;;;;24.48;35.42;101058.12;1819984;77;20996;-69
2021/05/25 11:19:12;;;;;;;2.10;0.70;;;;;;;24.37;35.11;101075.23;1778125;79;21092;-69
2021/05/25 11:24:46;;;;;;;1.53;0.67;;;;;;;24.32;35.68;101059.88;1801137;78;21152;-68
2021/05/25 11:27:29;;;;;;;1.70;0.63;;;;;;;24.36;37.29;101053.95;1811319;78;21037;-68
2021/05/25 11:30:01;;;;;;;1.63;0.67;;;;;;;24.43;36.43;101052.86;1788834;78;21530;-68
2021/05/25 11:32:46;;;;;;;1.50;0.70;;;;;;;24.47;35.60;101045.58;1782643;78;21080;-67
2021/05/25 11:35:17;;;;;;;1.33;0.60;;;;;;;24.42;35.60;101045.81;1789508;78;21005;-69
2021/05/25 11:37:53;;;;;;;2.63;0.73;;;;;;;24.46;36.97;101053.55;1812831;78;21974;-67
2021/05/25 11:40:23;;;;;;;1.80;0.60;;;;;;;24.45;35.98;101042.95;1819785;77;21591;-67
2021/05/25 11:42:50;;;;;;;1.13;0.70;;;;;;;24.45;36.47;101047.87;1789065;78;21085;-67
2021/05/25 11:45:24;;;;;;;1.00;0.60;;;;;;;24.48;36.45;101043.09;1780729;78;21068;-69
2021/05/25 11:47:54;;;;;;;0.83;0.60;;;;;;;24.53;36.00;101042.06;1778023;79;21036;-68